createdAt,value
2022-10-18T00:00:49.990Z,101766.44
2022-10-18T00:03:52.555Z,101774.59
2022-10-18T00:06:54.767Z,101752.22
2022-10-18T00:09:57.308Z,101768.38
2022-10-18T00:12:59.547Z,101778.31
2022-10-18T00:16:04.727Z,101763.16
2022-10-18T00:19:07.007Z,101762.97
2022-10-18T00:22:09.449Z,101738.16
2022-10-18T00:25:11.682Z,101740.94
2022-10-18T00:28:14.180Z,101742.03
2022-10-18T00:31:23.219Z,101764.56
2022-10-18T00:34:25.824Z,101734.50
2022-10-18T01:24:32.159Z,101722.53
2022-10-18T01:28:07.314Z,101726.41
2022-10-18T01:31:18.983Z,101719.25
2022-10-18T01:34:24.284Z,101707.22
2022-10-18T01:37:29.584Z,101690.84
2022-10-18T01:40:35.463Z,101690.06
2022-10-18T01:43:39.825Z,101709.97
2022-10-18T01:46:44.155Z,101707.22
2022-10-18T01:49:46.721Z,101698.41
2022-10-18T01:52:51.185Z,101691.25
2022-10-18T01:56:04.726Z,101692.50
2022-10-18T01:59:36.135Z,101693.31
2022-10-18T02:02:49.231Z,101690.84
2022-10-18T02:05:58.727Z,101687.91
2022-10-18T02:09:11.162Z,101690.47
2022-10-18T02:12:15.647Z,101683.94
2022-10-18T02:15:23.148Z,101688.47
2022-10-18T02:18:36.045Z,101673.63
2022-10-18T02:21:40.932Z,101675.59
2022-10-18T02:24:49.332Z,101666.19
2022-10-18T02:27:52.496Z,101673.47
2022-10-18T02:31:06.476Z,101687.66
2022-10-18T02:34:29.616Z,101675.00
2022-10-18T02:37:38.708Z,101688.41
2022-10-18T02:40:41.217Z,101670.31
2022-10-18T02:43:43.695Z,101687.91
2022-10-18T02:46:46.785Z,101670.22
2022-10-18T02:49:49.260Z,101670.53
2022-10-18T02:52:51.528Z,101694.66
2022-10-18T02:55:54.030Z,101689.75
2022-10-18T02:58:56.420Z,101681.78
2022-10-18T03:01:58.890Z,101664.94
2022-10-18T03:05:01.132Z,101663.59
2022-10-18T03:08:03.842Z,101679.44
2022-10-18T03:11:06.627Z,101663.09
2022-10-18T03:14:09.122Z,101689.44
2022-10-18T03:17:11.463Z,101696.72
2022-10-18T03:20:14.023Z,101683.12
2022-10-18T03:23:16.254Z,101690.16
2022-10-18T03:26:18.739Z,101686.50
2022-10-18T03:29:21.012Z,101689.88
2022-10-18T03:32:23.492Z,101688.72
2022-10-18T03:35:25.893Z,101701.03
2022-10-18T03:38:28.402Z,101682.81
2022-10-18T03:41:30.856Z,101688.34
2022-10-18T03:44:33.402Z,101688.66
2022-10-18T03:47:35.628Z,101710.81
2022-10-18T03:50:38.421Z,101696.50
2022-10-18T03:53:40.653Z,101700.69
2022-10-18T03:56:45.486Z,101708.75
2022-10-18T03:59:48.785Z,101713.28
2022-10-18T04:02:53.494Z,101689.75
2022-10-18T04:06:00.583Z,101704.78
2022-10-18T04:09:04.272Z,101699.88
2022-10-18T04:12:09.158Z,101681.34
2022-10-18T04:15:11.395Z,101670.31
2022-10-18T04:18:13.900Z,101677.25
2022-10-18T04:21:16.312Z,101676.16
2022-10-18T04:24:19.040Z,101668.50
2022-10-18T04:27:21.312Z,101695.78
2022-10-18T04:30:23.853Z,101670.63
2022-10-18T04:33:26.064Z,101687.28
2022-10-18T04:36:28.562Z,101691.37
2022-10-18T04:39:30.851Z,101690.87
2022-10-18T04:42:33.837Z,101684.31
2022-10-18T04:45:36.109Z,101690.94
2022-10-18T04:48:38.897Z,101678.28
2022-10-18T04:51:41.070Z,101678.91
2022-10-18T04:54:43.602Z,101662.97
2022-10-18T04:57:45.907Z,101657.53
2022-10-18T05:00:48.642Z,101661.72
2022-10-18T05:03:55.154Z,101659.06
2022-10-18T05:06:57.640Z,101649.91
2022-10-18T05:09:59.910Z,101668.50
2022-10-18T05:13:03.371Z,101670.41
2022-10-18T05:16:06.362Z,101663.56
2022-10-18T05:19:09.901Z,101666.84
2022-10-18T05:22:12.104Z,101672.34
2022-10-18T05:25:14.813Z,101669.59
2022-10-18T05:28:41.741Z,101679.28
2022-10-18T05:31:39.686Z,101656.63
2022-10-18T05:34:41.891Z,101666.81
2022-10-18T05:37:44.367Z,101663.56
2022-10-18T05:40:46.709Z,101666.09
2022-10-18T05:43:49.251Z,101684.59
2022-10-18T05:46:51.906Z,101679.91
2022-10-18T05:49:54.385Z,101663.13
2022-10-18T05:53:02.741Z,101680.31
2022-10-18T05:56:15.227Z,101675.00
2022-10-18T05:59:17.518Z,101677.66
2022-10-18T06:02:20.131Z,101679.34
2022-10-18T06:05:25.673Z,101683.19
2022-10-18T06:08:27.954Z,101667.87
2022-10-18T06:11:31.344Z,101679.75
2022-10-18T06:14:33.719Z,101682.72
2022-10-18T06:17:36.380Z,101675.25
2022-10-18T06:20:38.927Z,101662.69
2022-10-18T06:23:47.447Z,101684.47
2022-10-18T06:26:50.071Z,101664.22
2022-10-18T06:29:52.813Z,101701.31
2022-10-18T06:33:01.428Z,101679.66
2022-10-18T06:36:10.310Z,101619.87
2022-10-18T06:39:12.585Z,101694.06
2022-10-18T06:42:16.952Z,101685.97
2022-10-18T06:45:21.409Z,101703.53
2022-10-18T06:48:24.583Z,101682.25
2022-10-18T06:51:28.830Z,101661.50
2022-10-18T06:54:31.547Z,101696.38
2022-10-18T06:57:33.789Z,101707.38
2022-10-18T07:00:36.432Z,101685.47
2022-10-18T07:03:38.819Z,101698.72
2022-10-18T07:06:41.489Z,101710.66
2022-10-18T07:09:46.046Z,101717.91
2022-10-18T07:12:48.660Z,101711.72
2022-10-18T07:16:00.839Z,101694.81
2022-10-18T07:19:03.817Z,101706.56
2022-10-18T07:22:06.056Z,101715.59
2022-10-18T07:25:09.362Z,101678.47
2022-10-18T07:28:11.644Z,101693.41
2022-10-18T07:31:14.659Z,101697.00
2022-10-18T07:34:16.954Z,101693.69
2022-10-18T07:37:19.434Z,101697.50
2022-10-18T07:40:21.879Z,101689.94
2022-10-18T07:43:24.904Z,101682.06
2022-10-18T07:46:27.592Z,101676.19
2022-10-18T07:49:30.103Z,101680.78
2022-10-18T07:52:32.341Z,101692.94
2022-10-18T07:55:35.000Z,101693.88
2022-10-18T07:58:37.485Z,101694.28
2022-10-18T08:01:40.110Z,101675.06
2022-10-18T08:04:42.708Z,101677.28
2022-10-18T08:07:44.956Z,101672.62
2022-10-18T08:10:47.621Z,101659.66
2022-10-18T08:13:50.699Z,101682.41
2022-10-18T08:16:53.110Z,101657.37
2022-10-18T08:20:11.841Z,101669.50
2022-10-18T08:23:15.008Z,101665.94
2022-10-18T08:26:20.285Z,101664.47
2022-10-18T08:29:25.847Z,101646.41
2022-10-18T08:32:30.592Z,101671.13
2022-10-18T08:35:33.489Z,101657.63
2022-10-18T08:38:37.440Z,101650.75
2022-10-18T08:41:51.834Z,101642.03
2022-10-18T08:44:54.829Z,101649.44
2022-10-18T08:47:58.051Z,101648.53
2022-10-18T08:51:01.593Z,101645.34
2022-10-18T08:54:10.902Z,101642.44
2022-10-18T08:57:15.948Z,101640.25
2022-10-18T09:00:28.342Z,101637.16
2022-10-18T09:03:52.582Z,101633.00
2022-10-18T09:07:18.396Z,101623.87
2022-10-18T09:10:41.827Z,101611.34
2022-10-18T09:13:58.454Z,101621.09
2022-10-18T09:17:16.323Z,101594.53
2022-10-18T09:20:49.908Z,101603.72
2022-10-18T09:24:13.370Z,101594.09
2022-10-18T09:27:18.555Z,101586.94
2022-10-18T09:30:42.459Z,101584.59
2022-10-18T09:34:03.010Z,101592.87
2022-10-18T09:37:19.711Z,101589.53
2022-10-18T09:40:30.653Z,101583.03
2022-10-18T09:43:59.710Z,101586.06
2022-10-18T09:47:14.626Z,101584.62
2022-10-18T09:50:42.502Z,101571.34
2022-10-18T09:53:55.753Z,101560.31
2022-10-18T09:57:05.883Z,101560.06
2022-10-18T10:00:23.138Z,101559.84
2022-10-18T10:03:26.025Z,101547.00
2022-10-18T10:06:35.817Z,101552.25
2022-10-18T10:09:47.558Z,101541.87
2022-10-18T10:13:22.278Z,101536.38
2022-10-18T10:16:27.110Z,101544.22
2022-10-18T10:20:16.865Z,101523.53
2022-10-18T10:23:41.228Z,101528.09
2022-10-18T10:26:47.193Z,101506.09
2022-10-18T10:29:56.480Z,101511.75
2022-10-18T10:32:59.782Z,101505.56
2022-10-18T10:36:06.086Z,101500.38
2022-10-18T10:39:16.334Z,101491.72
2022-10-18T10:42:18.973Z,101501.22
2022-10-18T10:45:25.386Z,101487.69
2022-10-18T10:48:33.783Z,101484.34
2022-10-18T10:51:38.674Z,101474.56
2022-10-18T10:54:50.425Z,101469.41
2022-10-18T10:57:56.408Z,101460.97
2022-10-18T11:01:26.768Z,101455.13
2022-10-18T11:04:32.413Z,101459.97
2022-10-18T11:07:41.082Z,101463.19
2022-10-18T11:10:56.405Z,101456.75
2022-10-18T11:14:25.758Z,101454.22
2022-10-18T11:17:39.594Z,101445.97
2022-10-18T11:20:46.757Z,101437.00
2022-10-18T11:23:51.430Z,101444.41
2022-10-18T11:27:04.997Z,101431.66
2022-10-18T11:30:25.727Z,101425.84
2022-10-18T11:34:08.592Z,101430.34
2022-10-18T11:37:56.638Z,101416.03
2022-10-18T11:41:09.441Z,101412.56
2022-10-18T11:44:29.200Z,101404.06
2022-10-18T11:47:44.794Z,101400.72
2022-10-18T11:51:05.689Z,101396.94
2022-10-18T11:54:29.864Z,101387.91
2022-10-18T11:57:38.078Z,101384.72
2022-10-18T12:00:49.299Z,101382.53
2022-10-18T12:04:02.260Z,101358.81
2022-10-18T12:07:07.522Z,101364.84
2022-10-18T12:10:26.170Z,101367.81
2022-10-18T12:14:30.729Z,101368.84
2022-10-18T12:17:43.924Z,101353.66
2022-10-18T12:20:54.662Z,101342.09
2022-10-18T12:24:18.801Z,101326.00
2022-10-18T12:27:34.203Z,101341.72
2022-10-18T12:30:57.698Z,101328.87
2022-10-18T12:34:10.737Z,101330.47
2022-10-18T12:37:44.501Z,101311.97
2022-10-18T12:40:52.053Z,101319.97
2022-10-18T12:44:19.819Z,101297.34
2022-10-18T12:47:24.584Z,101303.38
2022-10-18T12:50:39.691Z,101284.87
2022-10-18T12:53:45.945Z,101295.84
2022-10-18T12:56:48.608Z,101287.81
2022-10-18T12:59:51.147Z,101266.72
2022-10-18T13:03:13.540Z,101257.69
2022-10-18T13:06:16.012Z,101277.19
2022-10-18T13:09:21.565Z,101284.09
2022-10-18T13:12:23.955Z,101274.94
2022-10-18T13:16:02.169Z,101266.12
2022-10-18T13:19:23.718Z,101266.84
2022-10-18T13:22:35.387Z,101256.38
2022-10-18T13:26:22.935Z,101255.13
2022-10-18T13:29:54.730Z,101258.69
2022-10-18T13:33:42.246Z,101255.88
2022-10-18T13:36:44.777Z,101246.31
2022-10-18T13:39:47.952Z,101247.75
2022-10-18T13:42:50.726Z,101251.53
2022-10-18T13:45:56.235Z,101228.88
2022-10-18T13:49:17.287Z,101241.06
2022-10-18T13:52:47.534Z,101249.31
2022-10-18T13:56:13.721Z,101245.84
2022-10-18T13:59:25.164Z,101248.75
2022-10-18T14:02:50.982Z,101241.38
2022-10-18T14:06:20.114Z,101233.41
2022-10-18T14:09:40.305Z,101233.41
2022-10-18T14:12:54.793Z,101205.59
2022-10-18T14:16:05.961Z,101207.94
2022-10-18T14:19:20.347Z,101195.50
2022-10-18T14:22:38.817Z,101198.50
2022-10-18T14:25:42.153Z,101210.34
2022-10-18T14:29:01.723Z,101207.22
2022-10-18T14:32:10.705Z,101207.72
2022-10-18T14:35:32.425Z,101211.53
2022-10-18T14:38:37.537Z,101200.22
2022-10-18T14:41:52.837Z,101176.03
2022-10-18T14:44:56.566Z,101198.50
2022-10-18T14:48:07.749Z,101200.72
2022-10-18T14:51:11.357Z,101186.53
2022-10-18T14:54:19.734Z,101186.53
2022-10-18T14:57:26.861Z,101177.28
2022-10-18T15:00:38.118Z,101185.22
2022-10-18T15:03:40.684Z,101151.03
2022-10-18T15:06:44.503Z,101156.16
2022-10-18T15:09:47.422Z,101156.22
2022-10-18T15:13:08.679Z,101162.63
2022-10-18T15:16:17.171Z,101166.56
2022-10-18T15:19:22.281Z,101145.50
2022-10-18T15:22:31.911Z,101171.19
2022-10-18T15:25:35.930Z,101159.16
2022-10-18T15:28:52.644Z,101148.72
2022-10-18T15:31:55.465Z,101143.78
2022-10-18T15:35:20.980Z,101143.31
2022-10-18T15:38:29.063Z,101133.47
2022-10-18T15:41:51.994Z,101127.38
2022-10-18T15:44:54.270Z,101149.09
2022-10-18T15:48:13.081Z,101148.16
2022-10-18T15:51:48.169Z,101147.22
2022-10-18T15:54:50.915Z,101143.94
2022-10-18T15:58:04.773Z,101138.97
2022-10-18T16:01:16.271Z,101147.69
2022-10-18T16:04:32.760Z,101129.88
2022-10-18T16:07:35.338Z,101142.63
2022-10-18T16:10:38.252Z,101118.44
2022-10-18T16:13:40.888Z,101127.66
2022-10-18T16:16:44.284Z,101124.72
2022-10-18T16:19:46.495Z,101130.16
2022-10-18T16:22:49.076Z,101140.44
2022-10-18T16:25:51.883Z,101121.31
2022-10-18T16:28:55.661Z,101132.13
2022-10-18T16:31:58.527Z,101117.84
2022-10-18T16:35:01.091Z,101146.97
2022-10-18T16:38:03.343Z,101126.69
2022-10-18T16:41:07.592Z,101147.34
2022-10-18T16:44:10.785Z,101155.91
2022-10-18T16:47:13.304Z,101156.38
2022-10-18T16:50:18.989Z,101157.34
2022-10-18T16:53:25.287Z,101131.78
2022-10-18T16:56:31.134Z,101132.75
2022-10-18T16:59:33.648Z,101142.72
2022-10-18T17:02:35.917Z,101151.22
2022-10-18T17:05:38.635Z,101153.34
2022-10-18T17:08:40.919Z,101138.69
2022-10-18T17:11:43.448Z,101150.09
2022-10-18T17:14:45.656Z,101141.56
2022-10-18T17:17:49.988Z,101147.62
2022-10-18T17:20:52.546Z,101139.78
2022-10-18T17:23:55.880Z,101144.78
2022-10-18T17:26:58.188Z,101150.25
2022-10-18T17:30:00.834Z,101139.19
2022-10-18T17:33:03.061Z,101153.28
2022-10-18T17:36:05.786Z,101146.34
2022-10-18T17:39:08.915Z,101142.66
2022-10-18T17:42:11.516Z,101128.72
2022-10-18T17:45:13.734Z,101101.28
2022-10-18T17:48:16.667Z,101129.50
2022-10-18T17:51:18.949Z,101121.09
2022-10-18T17:54:21.476Z,101123.38
2022-10-18T17:57:23.727Z,101120.38
2022-10-18T18:00:26.952Z,101108.00
2022-10-18T18:03:29.528Z,101120.38
2022-10-18T18:06:34.488Z,101129.78
2022-10-18T18:09:37.213Z,101133.94
2022-10-18T18:12:39.504Z,101132.09
2022-10-18T18:15:42.156Z,101119.28
2022-10-18T18:18:45.361Z,101127.16
2022-10-18T18:21:48.083Z,101106.44
2022-10-18T18:24:50.330Z,101120.53
2022-10-18T18:27:54.295Z,101107.38
2022-10-18T18:30:56.903Z,101110.72
2022-10-18T18:34:00.398Z,101112.94
2022-10-18T18:37:02.793Z,101109.69
2022-10-18T18:40:05.911Z,101092.59
2022-10-18T18:43:22.635Z,101121.25
2022-10-18T18:46:28.389Z,101097.66
2022-10-18T18:49:31.491Z,101118.81
2022-10-18T18:52:34.694Z,101103.22
2022-10-18T18:55:39.732Z,101083.63
2022-10-18T18:58:44.358Z,101098.13
2022-10-18T19:01:46.684Z,101093.25
2022-10-18T19:04:50.700Z,101100.16
2022-10-18T19:07:53.008Z,101093.56
2022-10-18T19:10:55.500Z,101098.97
2022-10-18T19:13:57.874Z,101089.94
2022-10-18T19:17:01.545Z,101086.56
2022-10-18T19:20:05.139Z,101071.53
2022-10-18T19:23:07.585Z,101089.69
2022-10-18T19:26:22.895Z,101097.06
2022-10-18T19:29:31.590Z,101096.16
2022-10-18T19:32:34.226Z,101094.06
2022-10-18T19:35:38.295Z,101080.19
2022-10-18T19:38:40.568Z,101062.59
2022-10-18T19:41:43.175Z,101061.66
2022-10-18T19:44:45.454Z,101092.72
2022-10-18T19:47:48.058Z,101091.91
2022-10-18T19:50:50.823Z,101047.34
2022-10-18T19:53:54.438Z,101071.75
2022-10-18T19:56:56.761Z,101068.97
2022-10-18T20:00:00.738Z,101098.56
2022-10-18T20:03:03.579Z,101070.78
2022-10-18T20:06:06.487Z,101092.75
2022-10-18T20:09:13.367Z,101062.09
2022-10-18T20:12:18.710Z,101081.41
2022-10-18T20:15:20.952Z,101048.19
2022-10-18T20:18:23.819Z,101066.34
2022-10-18T20:21:28.364Z,101051.19
2022-10-18T20:24:30.962Z,101048.25
2022-10-18T20:27:33.733Z,101047.78
2022-10-18T20:30:36.455Z,101034.81
2022-10-18T20:33:39.254Z,101072.00
2022-10-18T20:36:42.912Z,101070.59
2022-10-18T20:39:45.621Z,101044.78
2022-10-18T20:42:48.145Z,101060.87
2022-10-18T20:45:56.723Z,101036.53
2022-10-18T20:48:59.274Z,101042.06
2022-10-18T20:52:01.476Z,101067.75
2022-10-18T20:55:04.615Z,101032.03
2022-10-18T20:58:06.891Z,101044.72
2022-10-18T21:01:10.447Z,101054.78
2022-10-18T21:04:12.759Z,101025.88
2022-10-18T21:07:15.211Z,101024.94
2022-10-18T21:10:17.427Z,101033.25
2022-10-18T21:13:19.938Z,101023.16
2022-10-18T21:16:22.292Z,101027.56
2022-10-18T21:19:26.635Z,101028.38
2022-10-18T21:22:28.865Z,101035.03
2022-10-18T21:25:31.479Z,101016.41
2022-10-18T21:28:34.436Z,101045.16
2022-10-18T21:31:39.801Z,101026.19
2022-10-18T21:34:42.019Z,101026.53
2022-10-18T21:37:44.506Z,101034.09
2022-10-18T21:40:46.771Z,101021.78
2022-10-18T21:43:51.920Z,101030.22
2022-10-18T21:46:55.062Z,100998.44
2022-10-18T21:49:57.865Z,100997.28
2022-10-18T21:53:00.117Z,101005.06
2022-10-18T21:56:15.480Z,100984.12
2022-10-18T21:59:17.723Z,100998.72
2022-10-18T22:02:20.194Z,100969.84
2022-10-18T22:05:22.727Z,100980.69
2022-10-18T22:08:24.998Z,100977.31
2022-10-18T22:11:34.616Z,100990.78
2022-10-18T22:14:36.825Z,100987.66
2022-10-18T22:17:39.316Z,100972.59
2022-10-18T22:20:41.549Z,100967.84
2022-10-18T22:23:49.465Z,100987.47
2022-10-18T22:26:51.679Z,100988.75
2022-10-18T22:29:54.176Z,100954.00
2022-10-18T22:32:56.777Z,100984.84
2022-10-18T22:35:59.518Z,100979.44
2022-10-18T22:39:05.459Z,100982.00
2022-10-18T22:42:08.089Z,100972.69
2022-10-18T22:45:10.570Z,100968.66
2022-10-18T22:48:13.036Z,100958.25
2022-10-18T22:51:15.891Z,100973.78
2022-10-18T22:54:18.497Z,100963.94
2022-10-18T22:57:20.729Z,100957.59
2022-10-18T23:00:23.307Z,100956.44
2022-10-18T23:03:25.539Z,100976.22
2022-10-18T23:06:30.974Z,100983.69
2022-10-18T23:09:33.401Z,100980.25
2022-10-18T23:12:36.107Z,100969.06
2022-10-18T23:15:41.372Z,100963.88
2022-10-18T23:18:44.067Z,100941.94
2022-10-18T23:21:46.455Z,100941.44
2022-10-18T23:24:48.933Z,100938.69
2022-10-18T23:27:51.151Z,100937.75
2022-10-18T23:30:53.632Z,100950.03
2022-10-18T23:33:58.183Z,100957.16
2022-10-18T23:37:00.691Z,100958.44
2022-10-18T23:40:04.431Z,100959.94
2022-10-18T23:43:06.945Z,100944.41
2022-10-18T23:46:09.967Z,100946.78
2022-10-18T23:49:12.549Z,100940.97
2022-10-18T23:52:14.877Z,100944.22
2022-10-18T23:55:17.422Z,100950.41
2022-10-18T23:58:20.001Z,100926.59
